Detall de PIREP

Printer-friendly versionPDF version

[2013/09/11 09:31:00]
Flight IATA:CT0001
Pilot Number:012
Company ICAO:CAT
Aircraft Type:A320/E
PAX:150
Departing Airport: LEPA
Destination Airport: LERS
Alternate Airport:LEPA
Online: VATSIM
Route:DRAGO A29 PAPOS R80 EBROX
Flight Level:F180
No Slew and time accel
No pause
Crash detect
Detect pilot in Cockpit between each 30 and 45 minutes
09:31 Zero fuel Weight: 119013 Lbs, Fuel Weight: 13712 Lbs
09:31 VATSIM:LEPA 110900Z 07010KT 030V090 9999 FEW015 23/19 Q1019 NOSIG
09:31 VATSIM:LERS 110900Z 28007KT 9999 FEW020 BKN050 20/09 Q1021
09:31 VOICE CATALONIAN
09:32 Parking Brakes off
09:35 Take-off
09:35 Take off Weight: 132096 Lbs
09:35 Wind: 047º @ 008 Knots Heading: 057º
09:35 POS N39º 33´ 06´´ E002º 45´ 12´´
09:35 Gear Up: 193 Knots
09:41 TOC
09:41 Fuel Weight: 11200 Lb
09:50 Wind:308º@013 Knots Heading: 337º Ground Speed: 388 Knots Altitude 18202 ft
09:50 TOD
09:50 Fuel Weight: 9868 Lb
10:05 Wind:279º@006 Knots Heading: 065º Ground Speed: 236 Knots Altitude 3802 ft
10:06 Flaps:1 at 196 Knots
10:07 Flaps:3 at 183 Knots
10:08 Flaps:4 at 179 Knots
10:08 Flaps:5 at 155 Knots
10:08 Gear Down: 139 Knots
10:11 TouchDown:Rate -182 ft/min Speed: 134 Knots
10:12 VATSIM:LERS 111000Z 27010KT 9999 FEW020 BKN050 21/09 Q1021
10:12 Land
10:12 Wind:280º@007 Knots
10:12 Heading: 245º
10:12 Flight Duration: 00:37
10:12 Landing Weight: 126993 Lbs
10:12 POS N41º 08´ 53´´ E001º 10´ 08´´
10:14 Parking brakes on
10:14 Block to Block Duration: 00:42
10:14 Final Fuel: 7777 Lbls
10:14 Spent Fuel: 5934 Lbls
10:14 Flight Length: 172 NM
10:14 TOD Land Length: 85 NM

Exportar CSV

Powered by Drupal - Modified by Danger4k